TAF and METAR

METAR for Capitan Nicolas Rojas Airport

SLPO 251300Z 24005KT 9999 NSC 10/00 Q1035
Report created 25. sep 15:00
wind 5 knots from WSW (240°) visibility > 10km No significant clouds. Temperature 10° with dewpoint at 0° (Humidity 49.80%) Pressure 1035 hPa
No TAF available for Capitan Nicolas Rojas Airport